sensor_id;sensor_type;location;lat;lon;timestamp;temperature;humidity
4687;DHT22;2357;47.316;-1.348;2022-10-13T00:01:17;15.00;99.90
4687;DHT22;2357;47.316;-1.348;2022-10-13T00:03:43;15.00;99.90
4687;DHT22;2357;47.316;-1.348;2022-10-13T00:06:12;15.00;99.90
4687;DHT22;2357;47.316;-1.348;2022-10-13T00:08:39;15.00;99.90
4687;DHT22;2357;47.316;-1.348;2022-10-13T00:11:23;15.00;99.90
4687;DHT22;2357;47.316;-1.348;2022-10-13T00:13:50;15.00;99.90
4687;DHT22;2357;47.316;-1.348;2022-10-13T00:16:19;15.00;99.90
4687;DHT22;2357;47.316;-1.348;2022-10-13T00:18:45;15.00;99.90
4687;DHT22;2357;47.316;-1.348;2022-10-13T00:21:13;15.00;99.90
4687;DHT22;2357;47.316;-1.348;2022-10-13T00:23:40;15.00;99.90
4687;DHT22;2357;47.316;-1.348;2022-10-13T00:26:08;15.00;99.90
4687;DHT22;2357;47.316;-1.348;2022-10-13T00:28:35;15.00;99.90
4687;DHT22;2357;47.316;-1.348;2022-10-13T00:31:01;14.90;99.90
4687;DHT22;2357;47.316;-1.348;2022-10-13T00:33:27;14.90;99.90
4687;DHT22;2357;47.316;-1.348;2022-10-13T00:35:52;14.90;99.90
4687;DHT22;2357;47.316;-1.348;2022-10-13T00:38:20;14.90;99.90
4687;DHT22;2357;47.316;-1.348;2022-10-13T00:40:54;14.90;99.90
4687;DHT22;2357;47.316;-1.348;2022-10-13T00:43:26;14.90;99.90
4687;DHT22;2357;47.316;-1.348;2022-10-13T00:45:53;14.90;99.90
4687;DHT22;2357;47.316;-1.348;2022-10-13T00:48:28;14.90;99.90
4687;DHT22;2357;47.316;-1.348;2022-10-13T00:50:55;14.90;99.90
4687;DHT22;2357;47.316;-1.348;2022-10-13T00:53:24;14.80;99.90
4687;DHT22;2357;47.316;-1.348;2022-10-13T00:55:51;14.80;99.90
4687;DHT22;2357;47.316;-1.348;2022-10-13T00:58:18;14.70;99.90
4687;DHT22;2357;47.316;-1.348;2022-10-13T01:00:48;14.70;99.90
4687;DHT22;2357;47.316;-1.348;2022-10-13T01:03:14;14.70;99.90
4687;DHT22;2357;47.316;-1.348;2022-10-13T01:05:41;14.70;99.90
4687;DHT22;2357;47.316;-1.348;2022-10-13T01:08:08;14.60;99.90
4687;DHT22;2357;47.316;-1.348;2022-10-13T01:13:36;14.80;99.90
4687;DHT22;2357;47.316;-1.348;2022-10-13T01:21:32;14.80;99.90
4687;DHT22;2357;47.316;-1.348;2022-10-13T01:39:41;14.90;99.90
4687;DHT22;2357;47.316;-1.348;2022-10-13T01:42:21;14.90;99.90
4687;DHT22;2357;47.316;-1.348;2022-10-13T01:44:51;14.90;99.90
4687;DHT22;2357;47.316;-1.348;2022-10-13T01:47:19;14.90;99.90
4687;DHT22;2357;47.316;-1.348;2022-10-13T01:49:46;14.80;99.90
4687;DHT22;2357;47.316;-1.348;2022-10-13T01:52:15;14.80;99.90
4687;DHT22;2357;47.316;-1.348;2022-10-13T01:54:42;14.80;99.90
4687;DHT22;2357;47.316;-1.348;2022-10-13T01:59:55;14.80;99.90
4687;DHT22;2357;47.316;-1.348;2022-10-13T02:11:26;14.90;99.90
4687;DHT22;2357;47.316;-1.348;2022-10-13T02:14:04;14.90;99.90
4687;DHT22;2357;47.316;-1.348;2022-10-13T02:16:35;14.80;99.90
4687;DHT22;2357;47.316;-1.348;2022-10-13T02:19:05;14.80;99.90
4687;DHT22;2357;47.316;-1.348;2022-10-13T02:21:32;14.80;99.90
4687;DHT22;2357;47.316;-1.348;2022-10-13T02:23:57;14.80;99.90
4687;DHT22;2357;47.316;-1.348;2022-10-13T02:26:24;14.80;99.90
4687;DHT22;2357;47.316;-1.348;2022-10-13T02:28:50;14.70;99.90
4687;DHT22;2357;47.316;-1.348;2022-10-13T02:31:16;14.80;99.90
4687;DHT22;2357;47.316;-1.348;2022-10-13T02:33:41;14.80;99.90
4687;DHT22;2357;47.316;-1.348;2022-10-13T02:36:07;14.70;99.90
4687;DHT22;2357;47.316;-1.348;2022-10-13T02:38:32;14.80;99.90
4687;DHT22;2357;47.316;-1.348;2022-10-13T02:41:00;14.80;99.90
4687;DHT22;2357;47.316;-1.348;2022-10-13T02:43:27;14.80;99.90
4687;DHT22;2357;47.316;-1.348;2022-10-13T02:45:53;14.70;99.90
4687;DHT22;2357;47.316;-1.348;2022-10-13T02:48:18;14.70;99.90
4687;DHT22;2357;47.316;-1.348;2022-10-13T02:50:45;14.70;99.90
4687;DHT22;2357;47.316;-1.348;2022-10-13T02:53:11;14.80;99.90
4687;DHT22;2357;47.316;-1.348;2022-10-13T02:55:36;14.70;99.90
4687;DHT22;2357;47.316;-1.348;2022-10-13T02:58:02;14.70;99.90
4687;DHT22;2357;47.316;-1.348;2022-10-13T03:00:29;14.60;99.90
4687;DHT22;2357;47.316;-1.348;2022-10-13T03:02:55;14.60;99.90
4687;DHT22;2357;47.316;-1.348;2022-10-13T03:05:20;14.60;99.90
4687;DHT22;2357;47.316;-1.348;2022-10-13T03:07:46;14.60;99.90
4687;DHT22;2357;47.316;-1.348;2022-10-13T03:10:12;14.60;99.90
4687;DHT22;2357;47.316;-1.348;2022-10-13T03:12:37;14.60;99.90
4687;DHT22;2357;47.316;-1.348;2022-10-13T03:15:03;14.60;99.90
4687;DHT22;2357;47.316;-1.348;2022-10-13T03:17:29;14.60;99.90
4687;DHT22;2357;47.316;-1.348;2022-10-13T03:19:54;14.60;99.90
4687;DHT22;2357;47.316;-1.348;2022-10-13T03:22:20;14.50;99.90
4687;DHT22;2357;47.316;-1.348;2022-10-13T03:24:46;14.50;99.90
4687;DHT22;2357;47.316;-1.348;2022-10-13T03:27:11;14.50;99.90
4687;DHT22;2357;47.316;-1.348;2022-10-13T03:29:37;14.40;99.90
4687;DHT22;2357;47.316;-1.348;2022-10-13T03:32:03;14.40;99.90
4687;DHT22;2357;47.316;-1.348;2022-10-13T03:34:29;14.40;99.90
4687;DHT22;2357;47.316;-1.348;2022-10-13T03:36:54;14.40;99.90
4687;DHT22;2357;47.316;-1.348;2022-10-13T03:39:20;14.40;99.90
4687;DHT22;2357;47.316;-1.348;2022-10-13T03:41:46;14.40;99.90
4687;DHT22;2357;47.316;-1.348;2022-10-13T03:44:12;14.40;99.90
4687;DHT22;2357;47.316;-1.348;2022-10-13T03:46:38;14.40;99.90
4687;DHT22;2357;47.316;-1.348;2022-10-13T03:49:04;14.40;99.90
4687;DHT22;2357;47.316;-1.348;2022-10-13T03:51:30;14.40;99.90
4687;DHT22;2357;47.316;-1.348;2022-10-13T03:53:56;14.30;99.90
4687;DHT22;2357;47.316;-1.348;2022-10-13T03:56:25;14.30;99.90
4687;DHT22;2357;47.316;-1.348;2022-10-13T03:58:53;14.30;99.90
4687;DHT22;2357;47.316;-1.348;2022-10-13T04:01:25;14.30;99.90
4687;DHT22;2357;47.316;-1.348;2022-10-13T04:03:52;14.20;99.90
4687;DHT22;2357;47.316;-1.348;2022-10-13T04:06:19;14.20;99.90
4687;DHT22;2357;47.316;-1.348;2022-10-13T04:08:44;14.20;99.90
4687;DHT22;2357;47.316;-1.348;2022-10-13T04:11:12;14.20;99.90
4687;DHT22;2357;47.316;-1.348;2022-10-13T04:13:38;14.10;99.90
4687;DHT22;2357;47.316;-1.348;2022-10-13T04:16:07;14.10;99.90
4687;DHT22;2357;47.316;-1.348;2022-10-13T04:18:33;14.10;99.90
4687;DHT22;2357;47.316;-1.348;2022-10-13T04:21:00;14.10;99.90
4687;DHT22;2357;47.316;-1.348;2022-10-13T04:23:25;14.00;99.90
4687;DHT22;2357;47.316;-1.348;2022-10-13T04:25:51;14.00;99.90
4687;DHT22;2357;47.316;-1.348;2022-10-13T04:28:16;14.00;99.90
4687;DHT22;2357;47.316;-1.348;2022-10-13T04:30:42;14.10;99.90
4687;DHT22;2357;47.316;-1.348;2022-10-13T04:33:09;14.10;99.90
4687;DHT22;2357;47.316;-1.348;2022-10-13T04:35:39;14.00;99.90
4687;DHT22;2357;47.316;-1.348;2022-10-13T04:38:05;14.00;99.90
4687;DHT22;2357;47.316;-1.348;2022-10-13T04:40:31;14.00;99.90
4687;DHT22;2357;47.316;-1.348;2022-10-13T04:42:57;14.00;99.90
4687;DHT22;2357;47.316;-1.348;2022-10-13T04:45:23;14.00;99.90
4687;DHT22;2357;47.316;-1.348;2022-10-13T04:47:49;14.00;99.90
4687;DHT22;2357;47.316;-1.348;2022-10-13T04:50:14;14.00;99.90
4687;DHT22;2357;47.316;-1.348;2022-10-13T04:52:40;14.00;99.90
4687;DHT22;2357;47.316;-1.348;2022-10-13T04:55:06;14.10;99.90
4687;DHT22;2357;47.316;-1.348;2022-10-13T04:57:33;14.10;99.90
4687;DHT22;2357;47.316;-1.348;2022-10-13T04:59:59;14.00;99.90
4687;DHT22;2357;47.316;-1.348;2022-10-13T05:02:24;14.10;99.90
4687;DHT22;2357;47.316;-1.348;2022-10-13T05:04:50;14.00;99.90
4687;DHT22;2357;47.316;-1.348;2022-10-13T05:07:16;14.00;99.90
4687;DHT22;2357;47.316;-1.348;2022-10-13T05:09:41;13.90;99.90
4687;DHT22;2357;47.316;-1.348;2022-10-13T05:12:07;13.90;99.90
4687;DHT22;2357;47.316;-1.348;2022-10-13T05:14:32;14.00;99.90
4687;DHT22;2357;47.316;-1.348;2022-10-13T05:16:59;14.00;99.90
4687;DHT22;2357;47.316;-1.348;2022-10-13T05:19:25;14.00;99.90
4687;DHT22;2357;47.316;-1.348;2022-10-13T05:21:51;14.00;99.90
4687;DHT22;2357;47.316;-1.348;2022-10-13T05:24:17;14.10;99.90
4687;DHT22;2357;47.316;-1.348;2022-10-13T05:26:45;14.10;99.90
4687;DHT22;2357;47.316;-1.348;2022-10-13T05:29:10;14.00;99.90
4687;DHT22;2357;47.316;-1.348;2022-10-13T05:31:36;14.00;99.90
4687;DHT22;2357;47.316;-1.348;2022-10-13T05:34:02;14.00;99.90
4687;DHT22;2357;47.316;-1.348;2022-10-13T05:36:30;14.10;99.90
4687;DHT22;2357;47.316;-1.348;2022-10-13T05:38:59;14.10;99.90
4687;DHT22;2357;47.316;-1.348;2022-10-13T05:41:26;14.10;99.90
4687;DHT22;2357;47.316;-1.348;2022-10-13T05:44:04;14.10;99.90
4687;DHT22;2357;47.316;-1.348;2022-10-13T05:46:31;14.00;99.90
4687;DHT22;2357;47.316;-1.348;2022-10-13T05:48:56;14.00;99.90
4687;DHT22;2357;47.316;-1.348;2022-10-13T05:51:26;14.00;99.90
4687;DHT22;2357;47.316;-1.348;2022-10-13T05:54:03;14.00;99.90
4687;DHT22;2357;47.316;-1.348;2022-10-13T05:56:44;14.00;99.90
4687;DHT22;2357;47.316;-1.348;2022-10-13T05:59:14;14.00;99.90
4687;DHT22;2357;47.316;-1.348;2022-10-13T06:01:41;14.00;99.90
4687;DHT22;2357;47.316;-1.348;2022-10-13T06:04:10;14.00;99.90
4687;DHT22;2357;47.316;-1.348;2022-10-13T06:06:38;14.00;99.90
4687;DHT22;2357;47.316;-1.348;2022-10-13T06:09:04;14.00;99.90
4687;DHT22;2357;47.316;-1.348;2022-10-13T06:11:30;14.00;99.90
4687;DHT22;2357;47.316;-1.348;2022-10-13T06:13:55;14.00;99.90
4687;DHT22;2357;47.316;-1.348;2022-10-13T06:16:21;14.10;99.90
4687;DHT22;2357;47.316;-1.348;2022-10-13T06:18:47;14.10;99.90
4687;DHT22;2357;47.316;-1.348;2022-10-13T06:21:12;14.10;99.90
4687;DHT22;2357;47.316;-1.348;2022-10-13T06:23:38;14.10;99.90
4687;DHT22;2357;47.316;-1.348;2022-10-13T06:26:06;14.10;99.90
4687;DHT22;2357;47.316;-1.348;2022-10-13T06:28:33;14.10;99.90
4687;DHT22;2357;47.316;-1.348;2022-10-13T06:30:58;14.10;99.90
4687;DHT22;2357;47.316;-1.348;2022-10-13T06:33:24;14.10;99.90
4687;DHT22;2357;47.316;-1.348;2022-10-13T06:35:51;14.10;99.90
4687;DHT22;2357;47.316;-1.348;2022-10-13T06:38:17;14.10;99.90
4687;DHT22;2357;47.316;-1.348;2022-10-13T06:40:43;14.20;99.90
4687;DHT22;2357;47.316;-1.348;2022-10-13T06:43:08;14.20;99.90
4687;DHT22;2357;47.316;-1.348;2022-10-13T06:45:34;14.20;99.90
4687;DHT22;2357;47.316;-1.348;2022-10-13T06:48:00;14.20;99.90
4687;DHT22;2357;47.316;-1.348;2022-10-13T06:50:26;14.20;99.90
4687;DHT22;2357;47.316;-1.348;2022-10-13T06:52:51;14.20;99.90
4687;DHT22;2357;47.316;-1.348;2022-10-13T06:55:17;14.20;99.90
4687;DHT22;2357;47.316;-1.348;2022-10-13T06:57:42;14.30;99.90
4687;DHT22;2357;47.316;-1.348;2022-10-13T07:00:08;14.20;99.90
4687;DHT22;2357;47.316;-1.348;2022-10-13T07:02:34;14.30;99.90
4687;DHT22;2357;47.316;-1.348;2022-10-13T07:05:00;14.30;99.90
4687;DHT22;2357;47.316;-1.348;2022-10-13T07:07:25;14.30;99.90
4687;DHT22;2357;47.316;-1.348;2022-10-13T07:09:51;14.30;99.90
4687;DHT22;2357;47.316;-1.348;2022-10-13T07:12:17;14.30;99.90
4687;DHT22;2357;47.316;-1.348;2022-10-13T07:14:43;14.40;99.90
4687;DHT22;2357;47.316;-1.348;2022-10-13T07:17:09;14.40;99.90
4687;DHT22;2357;47.316;-1.348;2022-10-13T07:19:34;14.40;99.90
4687;DHT22;2357;47.316;-1.348;2022-10-13T07:22:00;14.40;99.90
4687;DHT22;2357;47.316;-1.348;2022-10-13T07:24:26;14.40;99.90
4687;DHT22;2357;47.316;-1.348;2022-10-13T07:26:52;14.50;99.90
4687;DHT22;2357;47.316;-1.348;2022-10-13T07:29:17;14.50;99.90
4687;DHT22;2357;47.316;-1.348;2022-10-13T07:31:44;14.60;99.90
4687;DHT22;2357;47.316;-1.348;2022-10-13T07:34:11;14.60;99.90
4687;DHT22;2357;47.316;-1.348;2022-10-13T07:36:36;14.60;99.90
4687;DHT22;2357;47.316;-1.348;2022-10-13T07:39:05;14.60;99.90
4687;DHT22;2357;47.316;-1.348;2022-10-13T07:41:30;14.60;99.90
4687;DHT22;2357;47.316;-1.348;2022-10-13T07:43:56;14.60;99.90
4687;DHT22;2357;47.316;-1.348;2022-10-13T07:46:23;14.70;99.90
4687;DHT22;2357;47.316;-1.348;2022-10-13T07:48:49;14.70;99.90
4687;DHT22;2357;47.316;-1.348;2022-10-13T07:51:15;14.70;99.90
4687;DHT22;2357;47.316;-1.348;2022-10-13T07:53:41;14.80;99.90
4687;DHT22;2357;47.316;-1.348;2022-10-13T07:56:10;14.80;99.90
4687;DHT22;2357;47.316;-1.348;2022-10-13T07:58:37;14.80;99.90
4687;DHT22;2357;47.316;-1.348;2022-10-13T08:01:04;14.90;99.90
4687;DHT22;2357;47.316;-1.348;2022-10-13T08:03:30;14.90;99.90
4687;DHT22;2357;47.316;-1.348;2022-10-13T08:06:01;15.00;99.90
4687;DHT22;2357;47.316;-1.348;2022-10-13T08:08:27;15.00;99.90
4687;DHT22;2357;47.316;-1.348;2022-10-13T08:10:53;15.10;99.90
4687;DHT22;2357;47.316;-1.348;2022-10-13T08:13:19;15.10;99.90
4687;DHT22;2357;47.316;-1.348;2022-10-13T08:15:44;15.10;99.90
4687;DHT22;2357;47.316;-1.348;2022-10-13T08:18:12;15.20;99.90
4687;DHT22;2357;47.316;-1.348;2022-10-13T08:20:39;15.20;99.90
4687;DHT22;2357;47.316;-1.348;2022-10-13T08:23:05;15.20;99.90
4687;DHT22;2357;47.316;-1.348;2022-10-13T08:25:38;15.20;99.90
4687;DHT22;2357;47.316;-1.348;2022-10-13T08:28:05;15.20;99.90
4687;DHT22;2357;47.316;-1.348;2022-10-13T08:30:31;15.30;99.90
4687;DHT22;2357;47.316;-1.348;2022-10-13T08:32:56;15.30;99.90
4687;DHT22;2357;47.316;-1.348;2022-10-13T08:35:22;15.30;99.90
4687;DHT22;2357;47.316;-1.348;2022-10-13T08:37:48;15.40;99.90
4687;DHT22;2357;47.316;-1.348;2022-10-13T08:40:17;15.40;99.90
4687;DHT22;2357;47.316;-1.348;2022-10-13T08:42:44;15.50;99.90
4687;DHT22;2357;47.316;-1.348;2022-10-13T08:45:19;15.40;99.90
4687;DHT22;2357;47.316;-1.348;2022-10-13T08:47:50;15.50;99.90
4687;DHT22;2357;47.316;-1.348;2022-10-13T08:50:20;15.50;99.90
4687;DHT22;2357;47.316;-1.348;2022-10-13T08:55:51;15.70;99.90
4687;DHT22;2357;47.316;-1.348;2022-10-13T08:58:28;15.70;99.90
4687;DHT22;2357;47.316;-1.348;2022-10-13T09:03:44;15.70;99.90
4687;DHT22;2357;47.316;-1.348;2022-10-13T09:08:58;15.80;99.90
4687;DHT22;2357;47.316;-1.348;2022-10-13T09:11:44;15.80;99.90
4687;DHT22;2357;47.316;-1.348;2022-10-13T09:14:21;15.90;99.90
4687;DHT22;2357;47.316;-1.348;2022-10-13T09:16:47;15.90;99.90
4687;DHT22;2357;47.316;-1.348;2022-10-13T09:19:24;16.00;99.90
4687;DHT22;2357;47.316;-1.348;2022-10-13T09:21:52;16.00;99.90
4687;DHT22;2357;47.316;-1.348;2022-10-13T09:24:21;16.10;99.90
4687;DHT22;2357;47.316;-1.348;2022-10-13T09:26:49;16.10;99.90
4687;DHT22;2357;47.316;-1.348;2022-10-13T09:31:42;16.00;99.90
4687;DHT22;2357;47.316;-1.348;2022-10-13T09:36:38;16.00;99.90
4687;DHT22;2357;47.316;-1.348;2022-10-13T09:39:18;16.00;99.90
4687;DHT22;2357;47.316;-1.348;2022-10-13T09:41:44;16.00;99.90
4687;DHT22;2357;47.316;-1.348;2022-10-13T09:44:26;16.00;99.90
4687;DHT22;2357;47.316;-1.348;2022-10-13T09:47:02;16.00;99.90
4687;DHT22;2357;47.316;-1.348;2022-10-13T09:49:43;16.00;99.90
4687;DHT22;2357;47.316;-1.348;2022-10-13T09:54:51;15.90;99.90
4687;DHT22;2357;47.316;-1.348;2022-10-13T09:57:38;15.90;99.90
4687;DHT22;2357;47.316;-1.348;2022-10-13T10:05:43;16.00;99.90
4687;DHT22;2357;47.316;-1.348;2022-10-13T10:10:45;15.90;99.90
4687;DHT22;2357;47.316;-1.348;2022-10-13T10:13:13;15.90;99.90
4687;DHT22;2357;47.316;-1.348;2022-10-13T10:16:02;15.80;99.90
4687;DHT22;2357;47.316;-1.348;2022-10-13T10:21:16;15.70;99.90
4687;DHT22;2357;47.316;-1.348;2022-10-13T10:23:53;15.70;99.90
4687;DHT22;2357;47.316;-1.348;2022-10-13T10:26:21;15.70;99.90
4687;DHT22;2357;47.316;-1.348;2022-10-13T10:45:17;15.70;99.90
4687;DHT22;2357;47.316;-1.348;2022-10-13T10:47:46;15.70;99.90
4687;DHT22;2357;47.316;-1.348;2022-10-13T10:50:15;15.70;99.90
4687;DHT22;2357;47.316;-1.348;2022-10-13T10:53:13;15.60;99.90
4687;DHT22;2357;47.316;-1.348;2022-10-13T10:56:21;15.60;99.90
4687;DHT22;2357;47.316;-1.348;2022-10-13T10:59:04;15.60;99.90
4687;DHT22;2357;47.316;-1.348;2022-10-13T11:06:57;15.50;99.90
4687;DHT22;2357;47.316;-1.348;2022-10-13T11:15:01;15.50;99.90
4687;DHT22;2357;47.316;-1.348;2022-10-13T11:17:31;15.60;99.90
4687;DHT22;2357;47.316;-1.348;2022-10-13T11:19:58;15.50;99.90
4687;DHT22;2357;47.316;-1.348;2022-10-13T11:22:29;15.50;99.90
4687;DHT22;2357;47.316;-1.348;2022-10-13T11:25:01;15.50;99.90
4687;DHT22;2357;47.316;-1.348;2022-10-13T11:27:36;15.50;99.90
4687;DHT22;2357;47.316;-1.348;2022-10-13T11:30:04;15.50;99.90
4687;DHT22;2357;47.316;-1.348;2022-10-13T11:48:28;15.60;99.90
4687;DHT22;2357;47.316;-1.348;2022-10-13T11:56:46;15.70;99.90
4687;DHT22;2357;47.316;-1.348;2022-10-13T12:01:58;15.80;99.90
4687;DHT22;2357;47.316;-1.348;2022-10-13T12:04:26;15.80;99.90
4687;DHT22;2357;47.316;-1.348;2022-10-13T12:07:02;15.70;99.90
4687;DHT22;2357;47.316;-1.348;2022-10-13T12:09:30;15.70;99.90
4687;DHT22;2357;47.316;-1.348;2022-10-13T12:12:08;15.80;99.90
4687;DHT22;2357;47.316;-1.348;2022-10-13T12:14:39;15.70;99.90
4687;DHT22;2357;47.316;-1.348;2022-10-13T12:17:42;15.70;99.90
4687;DHT22;2357;47.316;-1.348;2022-10-13T12:20:24;15.70;99.90
4687;DHT22;2357;47.316;-1.348;2022-10-13T12:22:51;15.70;99.90
4687;DHT22;2357;47.316;-1.348;2022-10-13T12:25:19;15.70;99.90
4687;DHT22;2357;47.316;-1.348;2022-10-13T12:27:51;15.70;99.90
4687;DHT22;2357;47.316;-1.348;2022-10-13T12:30:26;15.70;99.90
4687;DHT22;2357;47.316;-1.348;2022-10-13T12:32:55;15.70;99.90
4687;DHT22;2357;47.316;-1.348;2022-10-13T12:35:28;15.70;99.90
4687;DHT22;2357;47.316;-1.348;2022-10-13T12:37:55;15.80;99.90
4687;DHT22;2357;47.316;-1.348;2022-10-13T12:40:22;15.80;99.90
4687;DHT22;2357;47.316;-1.348;2022-10-13T12:42:48;15.80;99.90
4687;DHT22;2357;47.316;-1.348;2022-10-13T12:45:16;15.70;99.90
4687;DHT22;2357;47.316;-1.348;2022-10-13T12:55:33;15.80;99.90
4687;DHT22;2357;47.316;-1.348;2022-10-13T12:58:00;15.70;99.90
4687;DHT22;2357;47.316;-1.348;2022-10-13T13:00:28;15.70;99.90
4687;DHT22;2357;47.316;-1.348;2022-10-13T13:08:02;15.60;99.90
4687;DHT22;2357;47.316;-1.348;2022-10-13T13:10:28;15.70;99.90
4687;DHT22;2357;47.316;-1.348;2022-10-13T13:12:55;15.60;99.90
4687;DHT22;2357;47.316;-1.348;2022-10-13T13:17:53;15.60;99.90
4687;DHT22;2357;47.316;-1.348;2022-10-13T13:20:29;15.60;99.90
4687;DHT22;2357;47.316;-1.348;2022-10-13T13:22:55;15.60;99.90
4687;DHT22;2357;47.316;-1.348;2022-10-13T13:25:21;15.60;99.90
4687;DHT22;2357;47.316;-1.348;2022-10-13T13:27:47;15.60;99.90
4687;DHT22;2357;47.316;-1.348;2022-10-13T13:30:18;15.60;99.90
4687;DHT22;2357;47.316;-1.348;2022-10-13T13:32:45;15.60;99.90
4687;DHT22;2357;47.316;-1.348;2022-10-13T13:35:10;15.60;99.90
4687;DHT22;2357;47.316;-1.348;2022-10-13T13:37:43;15.60;99.90
4687;DHT22;2357;47.316;-1.348;2022-10-13T13:40:15;15.60;99.90
4687;DHT22;2357;47.316;-1.348;2022-10-13T13:42:41;15.60;99.90
4687;DHT22;2357;47.316;-1.348;2022-10-13T13:45:11;15.60;99.90
4687;DHT22;2357;47.316;-1.348;2022-10-13T13:47:36;15.60;99.90
4687;DHT22;2357;47.316;-1.348;2022-10-13T13:50:02;15.60;99.90
4687;DHT22;2357;47.316;-1.348;2022-10-13T13:52:28;15.70;99.90
4687;DHT22;2357;47.316;-1.348;2022-10-13T13:54:53;15.70;99.90
4687;DHT22;2357;47.316;-1.348;2022-10-13T13:57:20;15.70;99.90
4687;DHT22;2357;47.316;-1.348;2022-10-13T13:59:46;15.70;99.90
4687;DHT22;2357;47.316;-1.348;2022-10-13T14:02:15;15.70;99.90
4687;DHT22;2357;47.316;-1.348;2022-10-13T14:04:41;15.70;99.90
4687;DHT22;2357;47.316;-1.348;2022-10-13T14:07:06;15.70;99.90
4687;DHT22;2357;47.316;-1.348;2022-10-13T14:09:32;15.80;99.90
4687;DHT22;2357;47.316;-1.348;2022-10-13T14:11:58;15.80;99.90
4687;DHT22;2357;47.316;-1.348;2022-10-13T14:14:24;15.80;99.90
4687;DHT22;2357;47.316;-1.348;2022-10-13T14:16:50;15.80;99.90
4687;DHT22;2357;47.316;-1.348;2022-10-13T14:19:15;15.90;99.90
4687;DHT22;2357;47.316;-1.348;2022-10-13T14:21:41;15.90;99.90
4687;DHT22;2357;47.316;-1.348;2022-10-13T14:24:07;15.90;99.90
4687;DHT22;2357;47.316;-1.348;2022-10-13T14:26:34;15.90;99.90
4687;DHT22;2357;47.316;-1.348;2022-10-13T14:28:59;15.90;99.90
4687;DHT22;2357;47.316;-1.348;2022-10-13T14:31:25;15.90;99.90
4687;DHT22;2357;47.316;-1.348;2022-10-13T14:33:51;16.00;99.90
4687;DHT22;2357;47.316;-1.348;2022-10-13T14:36:16;16.00;99.90
4687;DHT22;2357;47.316;-1.348;2022-10-13T14:38:42;16.10;99.90
4687;DHT22;2357;47.316;-1.348;2022-10-13T14:41:08;16.10;99.90
4687;DHT22;2357;47.316;-1.348;2022-10-13T14:43:33;16.20;99.90
4687;DHT22;2357;47.316;-1.348;2022-10-13T14:46:06;16.20;99.90
4687;DHT22;2357;47.316;-1.348;2022-10-13T14:48:32;16.30;99.90
4687;DHT22;2357;47.316;-1.348;2022-10-13T14:51:03;16.40;99.90
4687;DHT22;2357;47.316;-1.348;2022-10-13T14:53:34;16.40;99.90
4687;DHT22;2357;47.316;-1.348;2022-10-13T14:56:02;16.50;99.90
4687;DHT22;2357;47.316;-1.348;2022-10-13T14:58:28;16.50;99.90
4687;DHT22;2357;47.316;-1.348;2022-10-13T15:00:54;16.60;99.90
4687;DHT22;2357;47.316;-1.348;2022-10-13T15:03:21;16.60;99.90
4687;DHT22;2357;47.316;-1.348;2022-10-13T15:05:46;16.70;99.90
4687;DHT22;2357;47.316;-1.348;2022-10-13T15:08:12;16.70;99.90
4687;DHT22;2357;47.316;-1.348;2022-10-13T15:10:38;16.80;99.90
4687;DHT22;2357;47.316;-1.348;2022-10-13T15:13:03;16.90;99.90
4687;DHT22;2357;47.316;-1.348;2022-10-13T15:15:29;17.00;99.90
4687;DHT22;2357;47.316;-1.348;2022-10-13T15:17:55;17.00;99.90
4687;DHT22;2357;47.316;-1.348;2022-10-13T15:20:20;17.10;99.90
4687;DHT22;2357;47.316;-1.348;2022-10-13T15:22:47;17.10;99.90
4687;DHT22;2357;47.316;-1.348;2022-10-13T15:25:13;17.20;99.90
4687;DHT22;2357;47.316;-1.348;2022-10-13T15:27:39;17.30;99.90
4687;DHT22;2357;47.316;-1.348;2022-10-13T15:30:08;17.30;99.90
4687;DHT22;2357;47.316;-1.348;2022-10-13T15:32:34;17.40;99.90
4687;DHT22;2357;47.316;-1.348;2022-10-13T15:35:00;17.40;99.90
4687;DHT22;2357;47.316;-1.348;2022-10-13T15:37:26;17.40;99.90
4687;DHT22;2357;47.316;-1.348;2022-10-13T15:39:51;17.40;99.90
4687;DHT22;2357;47.316;-1.348;2022-10-13T15:42:17;17.40;99.90
4687;DHT22;2357;47.316;-1.348;2022-10-13T15:44:42;17.40;99.90
4687;DHT22;2357;47.316;-1.348;2022-10-13T15:47:08;17.40;99.90
4687;DHT22;2357;47.316;-1.348;2022-10-13T15:49:35;17.40;99.90
4687;DHT22;2357;47.316;-1.348;2022-10-13T15:52:04;17.40;99.90
4687;DHT22;2357;47.316;-1.348;2022-10-13T15:54:29;17.40;99.90
4687;DHT22;2357;47.316;-1.348;2022-10-13T15:56:55;17.40;99.90
4687;DHT22;2357;47.316;-1.348;2022-10-13T15:59:21;17.40;99.90
4687;DHT22;2357;47.316;-1.348;2022-10-13T16:01:46;17.50;99.90
4687;DHT22;2357;47.316;-1.348;2022-10-13T16:04:12;17.50;99.90
4687;DHT22;2357;47.316;-1.348;2022-10-13T16:06:37;17.50;99.90
4687;DHT22;2357;47.316;-1.348;2022-10-13T16:09:03;17.60;99.90
4687;DHT22;2357;47.316;-1.348;2022-10-13T16:11:29;17.60;99.90
4687;DHT22;2357;47.316;-1.348;2022-10-13T16:13:55;17.50;99.90
4687;DHT22;2357;47.316;-1.348;2022-10-13T16:16:20;17.50;99.90
4687;DHT22;2357;47.316;-1.348;2022-10-13T16:18:49;17.50;99.90
4687;DHT22;2357;47.316;-1.348;2022-10-13T16:21:21;17.50;99.90
4687;DHT22;2357;47.316;-1.348;2022-10-13T16:23:47;17.50;99.90
4687;DHT22;2357;47.316;-1.348;2022-10-13T16:26:14;17.50;99.90
4687;DHT22;2357;47.316;-1.348;2022-10-13T16:28:40;17.40;99.90
4687;DHT22;2357;47.316;-1.348;2022-10-13T16:31:08;17.40;99.90
4687;DHT22;2357;47.316;-1.348;2022-10-13T16:33:37;17.40;99.90
4687;DHT22;2357;47.316;-1.348;2022-10-13T16:36:05;17.40;99.90
4687;DHT22;2357;47.316;-1.348;2022-10-13T16:38:31;17.40;99.90
4687;DHT22;2357;47.316;-1.348;2022-10-13T16:40:57;17.40;99.90
4687;DHT22;2357;47.316;-1.348;2022-10-13T16:43:22;17.40;99.90
4687;DHT22;2357;47.316;-1.348;2022-10-13T16:45:59;17.40;99.90
4687;DHT22;2357;47.316;-1.348;2022-10-13T16:48:26;17.30;99.90
4687;DHT22;2357;47.316;-1.348;2022-10-13T16:50:51;17.30;99.90
4687;DHT22;2357;47.316;-1.348;2022-10-13T16:53:17;17.30;99.90
4687;DHT22;2357;47.316;-1.348;2022-10-13T16:55:43;17.30;99.90
4687;DHT22;2357;47.316;-1.348;2022-10-13T16:58:09;17.30;99.90
4687;DHT22;2357;47.316;-1.348;2022-10-13T17:00:36;17.30;99.90
4687;DHT22;2357;47.316;-1.348;2022-10-13T17:03:02;17.20;99.90
4687;DHT22;2357;47.316;-1.348;2022-10-13T17:05:28;17.20;99.90
4687;DHT22;2357;47.316;-1.348;2022-10-13T17:07:54;17.20;99.90
4687;DHT22;2357;47.316;-1.348;2022-10-13T17:10:19;17.20;99.90
4687;DHT22;2357;47.316;-1.348;2022-10-13T17:12:45;17.20;99.90
4687;DHT22;2357;47.316;-1.348;2022-10-13T17:15:11;17.20;99.90
4687;DHT22;2357;47.316;-1.348;2022-10-13T17:17:36;17.10;99.90
4687;DHT22;2357;47.316;-1.348;2022-10-13T17:20:02;17.10;99.90
4687;DHT22;2357;47.316;-1.348;2022-10-13T17:22:28;17.10;99.90
4687;DHT22;2357;47.316;-1.348;2022-10-13T17:24:54;17.10;99.90
4687;DHT22;2357;47.316;-1.348;2022-10-13T17:27:19;17.10;99.90
4687;DHT22;2357;47.316;-1.348;2022-10-13T17:29:45;17.10;99.90
4687;DHT22;2357;47.316;-1.348;2022-10-13T17:32:11;17.10;99.90
4687;DHT22;2357;47.316;-1.348;2022-10-13T17:34:36;17.10;99.90
4687;DHT22;2357;47.316;-1.348;2022-10-13T17:37:03;17.10;99.90
4687;DHT22;2357;47.316;-1.348;2022-10-13T17:39:29;17.10;99.90
4687;DHT22;2357;47.316;-1.348;2022-10-13T17:41:54;17.00;99.90
4687;DHT22;2357;47.316;-1.348;2022-10-13T17:44:20;17.00;99.90
4687;DHT22;2357;47.316;-1.348;2022-10-13T17:46:48;17.00;99.90
4687;DHT22;2357;47.316;-1.348;2022-10-13T17:49:15;17.00;99.90
4687;DHT22;2357;47.316;-1.348;2022-10-13T17:51:42;17.00;99.90
4687;DHT22;2357;47.316;-1.348;2022-10-13T17:54:08;16.90;99.90
4687;DHT22;2357;47.316;-1.348;2022-10-13T17:56:34;16.90;99.90
4687;DHT22;2357;47.316;-1.348;2022-10-13T17:59:00;16.90;99.90